Time,TemperatureF,DewpointF,PressureIn,WindDirection,WindDirectionDegrees,WindSpeedMPH,WindSpeedGustMPH,Humidity,HourlyPrecipIn,Conditions,Clouds,dailyrainin,SoftwareType,DateUTC
2013-06-24 00:00:00,55.8,53.5,30.18,ESE,120,0.0,3.0,92,0.00,,,0.00,Weather View 32 v70,2013-06-24 07:00:00,
2013-06-24 00:05:00,55.8,53.5,30.18,ESE,120,2.0,3.0,92,0.00,,,0.00,Weather View 32 v70,2013-06-24 07:05:00,
2013-06-24 00:10:00,55.8,53.5,30.18,ESE,120,0.0,3.0,92,0.00,,,0.00,Weather View 32 v70,2013-06-24 07:10:00,
2013-06-24 00:15:00,55.8,53.5,30.18,ESE,120,3.0,3.0,92,0.00,,,0.00,Weather View 32 v70,2013-06-24 07:15:00,
2013-06-24 00:20:00,55.6,53.3,30.18,ESE,120,0.0,3.0,92,0.00,,,0.00,Weather View 32 v70,2013-06-24 07:20:00,
2013-06-24 00:25:00,55.6,53.3,30.18,ESE,120,0.0,3.0,92,0.00,,,0.00,Weather View 32 v70,2013-06-24 07:25:00,
2013-06-24 00:30:00,55.6,53.3,30.18,ESE,120,0.0,3.0,92,0.00,,,0.00,Weather View 32 v70,2013-06-24 07:30:00,
2013-06-24 00:35:00,55.6,53.3,30.18,ESE,120,0.0,3.0,92,0.00,,,0.00,Weather View 32 v70,2013-06-24 07:35:00,
2013-06-24 00:40:00,55.6,53.6,30.18,ESE,120,0.0,3.0,93,0.00,,,0.00,Weather View 32 v70,2013-06-24 07:40:00,
2013-06-24 00:45:00,55.6,53.6,30.18,ESE,120,0.0,3.0,93,0.00,,,0.00,Weather View 32 v70,2013-06-24 07:45:00,
2013-06-24 00:50:00,55.6,53.6,30.18,ESE,120,0.0,3.0,93,0.00,,,0.00,Weather View 32 v70,2013-06-24 07:50:00,
2013-06-24 00:55:00,55.6,53.6,30.18,ESE,120,0.0,3.0,93,0.00,,,0.00,Weather View 32 v70,2013-06-24 07:55:00,
2013-06-24 01:00:00,55.4,53.4,30.18,ESE,120,0.0,3.0,93,0.00,,,0.00,Weather View 32 v70,2013-06-24 08:00:00,
2013-06-24 01:05:00,55.2,53.2,30.18,ESE,120,0.0,3.0,93,0.00,,,0.00,Weather View 32 v70,2013-06-24 08:05:00,
2013-06-24 01:10:00,55.2,53.2,30.18,ESE,120,0.0,3.0,93,0.00,,,0.00,Weather View 32 v70,2013-06-24 08:10:00,
2013-06-24 01:15:00,55.2,53.2,30.18,ESE,120,0.0,3.0,93,0.00,,,0.00,Weather View 32 v70,2013-06-24 08:15:00,
2013-06-24 01:20:00,55.2,53.2,30.18,ESE,120,0.0,3.0,93,0.00,,,0.00,Weather View 32 v70,2013-06-24 08:20:00,
2013-06-24 01:25:00,55.0,53.0,30.15,ESE,120,0.0,3.0,93,0.00,,,0.00,Weather View 32 v70,2013-06-24 08:25:00,
2013-06-24 01:30:00,54.9,52.9,30.15,ESE,120,0.0,3.0,93,0.00,,,0.00,Weather View 32 v70,2013-06-24 08:30:00,
2013-06-24 01:35:00,54.7,52.7,30.18,ESE,120,0.0,3.0,93,0.00,,,0.00,Weather View 32 v70,2013-06-24 08:35:00,
2013-06-24 01:40:00,54.7,52.7,30.18,ESE,120,0.0,3.0,93,0.00,,,0.00,Weather View 32 v70,2013-06-24 08:40:00,
2013-06-24 01:45:00,54.5,52.5,30.18,ESE,120,0.0,3.0,93,0.00,,,0.00,Weather View 32 v70,2013-06-24 08:45:00,
2013-06-24 01:50:00,54.3,52.3,30.18,ESE,120,0.0,0.0,93,0.00,,,0.00,Weather View 32 v70,2013-06-24 08:50:00,
2013-06-24 01:55:00,54.1,52.2,30.18,ESE,120,0.0,0.0,93,0.00,,,0.00,Weather View 32 v70,2013-06-24 08:55:00,
2013-06-24 02:00:00,54.0,52.0,30.18,ESE,120,0.0,0.0,93,0.00,,,0.00,Weather View 32 v70,2013-06-24 09:00:00,
2013-06-24 02:05:00,54.0,52.0,30.15,ESE,120,3.0,3.0,93,0.00,,,0.00,Weather View 32 v70,2013-06-24 09:05:00,
2013-06-24 02:10:00,53.8,51.8,30.15,ESE,120,0.0,4.0,93,0.00,,,0.00,Weather View 32 v70,2013-06-24 09:10:00,
2013-06-24 02:15:00,53.4,51.4,30.15,NNW,341,0.0,7.0,93,0.00,,,0.00,Weather View 32 v70,2013-06-24 09:15:00,
2013-06-24 02:20:00,53.2,51.3,30.15,NNW,341,0.0,7.0,93,0.00,,,0.00,Weather View 32 v70,2013-06-24 09:20:00,
2013-06-24 02:25:00,53.1,51.1,30.15,NNW,341,0.0,7.0,93,0.00,,,0.00,Weather View 32 v70,2013-06-24 09:25:00,
2013-06-24 02:30:00,52.9,50.9,30.15,NNW,341,0.0,7.0,93,0.00,,,0.00,Weather View 32 v70,2013-06-24 09:30:00,
2013-06-24 02:35:00,52.9,50.6,30.15,NNW,341,0.0,7.0,92,0.00,,,0.00,Weather View 32 v70,2013-06-24 09:35:00,
2013-06-24 02:40:00,52.7,50.4,30.15,NNW,341,0.0,7.0,92,0.00,,,0.00,Weather View 32 v70,2013-06-24 09:40:00,
2013-06-24 02:45:00,52.9,50.9,30.15,NNW,341,0.0,7.0,93,0.00,,,0.00,Weather View 32 v70,2013-06-24 09:45:00,
2013-06-24 02:50:00,52.9,50.9,30.15,NNW,341,0.0,7.0,93,0.00,,,0.00,Weather View 32 v70,2013-06-24 09:50:00,
2013-06-24 02:55:00,52.9,50.9,30.15,NNW,341,0.0,7.0,93,0.00,,,0.00,Weather View 32 v70,2013-06-24 09:55:00,
2013-06-24 03:00:00,52.7,50.7,30.15,NW,313,0.0,7.0,93,0.00,,,0.00,Weather View 32 v70,2013-06-24 10:00:00,
2013-06-24 03:05:00,52.5,50.5,30.15,West,271,0.0,7.0,93,0.00,,,0.00,Weather View 32 v70,2013-06-24 10:05:00,
2013-06-24 03:10:00,52.5,50.5,30.15,West,271,0.0,7.0,93,0.00,,,0.00,Weather View 32 v70,2013-06-24 10:10:00,
2013-06-24 03:15:00,52.3,50.1,30.15,West,271,0.0,4.0,92,0.00,,,0.00,Weather View 32 v70,2013-06-24 10:15:00,
2013-06-24 03:20:00,52.3,50.1,30.15,West,271,0.0,3.0,92,0.00,,,0.00,Weather View 32 v70,2013-06-24 10:20:00,
2013-06-24 03:25:00,52.2,49.9,30.15,West,271,0.0,3.0,92,0.00,,,0.00,Weather View 32 v70,2013-06-24 10:25:00,
2013-06-24 03:30:00,51.8,49.5,30.15,West,271,0.0,3.0,92,0.00,,,0.00,Weather View 32 v70,2013-06-24 10:30:00,
2013-06-24 03:35:00,51.6,49.7,30.15,West,271,0.0,3.0,93,0.00,,,0.00,Weather View 32 v70,2013-06-24 10:35:00,
2013-06-24 03:40:00,51.6,49.7,30.15,West,271,0.0,3.0,93,0.00,,,0.00,Weather View 32 v70,2013-06-24 10:40:00,
2013-06-24 03:46:00,51.4,49.5,30.15,West,271,0.0,3.0,93,0.00,,,0.00,Weather View 32 v70,2013-06-24 10:46:00,
2013-06-24 03:51:00,51.3,49.3,30.15,West,271,0.0,3.0,93,0.00,,,0.00,Weather View 32 v70,2013-06-24 10:51:00,
2013-06-24 03:56:00,51.3,49.3,30.15,West,271,0.0,3.0,93,0.00,,,0.00,Weather View 32 v70,2013-06-24 10:56:00,
2013-06-24 04:01:00,51.1,48.8,30.15,WNW,288,0.0,4.0,92,0.00,,,0.00,Weather View 32 v70,2013-06-24 11:01:00,
2013-06-24 04:06:00,50.9,48.7,30.15,NE,43,0.0,4.0,92,0.00,,,0.00,Weather View 32 v70,2013-06-24 11:06:00,
2013-06-24 04:11:00,50.7,48.5,30.15,NE,43,0.0,4.0,92,0.00,,,0.00,Weather View 32 v70,2013-06-24 11:11:00,
2013-06-24 04:16:00,50.7,48.5,30.15,NE,43,0.0,4.0,92,0.00,,,0.00,Weather View 32 v70,2013-06-24 11:16:00,
2013-06-24 04:21:00,50.7,48.5,30.15,NE,43,0.0,4.0,92,0.00,,,0.00,Weather View 32 v70,2013-06-24 11:21:00,
2013-06-24 04:26:00,50.7,48.5,30.15,NE,43,0.0,4.0,92,0.00,,,0.00,Weather View 32 v70,2013-06-24 11:26:00,
2013-06-24 04:31:00,50.5,48.0,30.15,NNW,335,0.0,5.0,91,0.00,,,0.00,Weather View 32 v70,2013-06-24 11:31:00,
2013-06-24 04:36:00,50.5,48.0,30.15,NNW,335,0.0,5.0,91,0.00,,,0.00,Weather View 32 v70,2013-06-24 11:36:00,
2013-06-24 04:41:00,50.4,47.8,30.15,NNW,335,0.0,5.0,91,0.00,,,0.00,Weather View 32 v70,2013-06-24 11:41:00,
2013-06-24 04:46:00,50.4,47.2,30.15,NNW,335,0.0,5.0,89,0.00,,,0.00,Weather View 32 v70,2013-06-24 11:46:00,
2013-06-24 04:51:00,50.2,47.1,30.15,NNW,335,0.0,5.0,89,0.00,,,0.00,Weather View 32 v70,2013-06-24 11:51:00,
2013-06-24 04:56:00,50.2,46.8,30.15,NNW,335,0.0,5.0,88,0.00,,,0.00,Weather View 32 v70,2013-06-24 11:56:00,
2013-06-24 05:01:00,50.0,46.6,30.15,NNW,335,0.0,5.0,88,0.00,,,0.00,Weather View 32 v70,2013-06-24 12:01:00,
2013-06-24 05:06:00,49.8,46.4,30.15,NNW,335,0.0,5.0,88,0.00,,,0.00,Weather View 32 v70,2013-06-24 12:06:00,
2013-06-24 05:11:00,49.8,46.7,30.15,NNW,335,0.0,5.0,89,0.00,,,0.00,Weather View 32 v70,2013-06-24 12:11:00,
2013-06-24 05:16:00,49.8,46.7,30.15,NNW,335,0.0,5.0,89,0.00,,,0.00,Weather View 32 v70,2013-06-24 12:16:00,
2013-06-24 05:21:00,49.8,46.7,30.15,NNW,335,0.0,5.0,89,0.00,,,0.00,Weather View 32 v70,2013-06-24 12:21:00,
2013-06-24 05:26:00,49.6,46.5,30.15,NNW,335,0.0,5.0,89,0.00,,,0.00,Weather View 32 v70,2013-06-24 12:26:00,
2013-06-24 05:31:00,49.6,46.5,30.15,NNW,335,0.0,0.0,89,0.00,,,0.00,Weather View 32 v70,2013-06-24 12:31:00,
2013-06-24 05:36:00,49.6,46.5,30.15,NNW,335,0.0,0.0,89,0.00,,,0.00,Weather View 32 v70,2013-06-24 12:36:00,
2013-06-24 05:41:00,49.5,46.3,30.15,NNW,335,0.0,0.0,89,0.00,,,0.00,Weather View 32 v70,2013-06-24 12:41:00,
2013-06-24 05:46:00,49.5,46.6,30.15,NNW,335,0.0,0.0,90,0.00,,,0.00,Weather View 32 v70,2013-06-24 12:46:00,
2013-06-24 05:51:00,49.5,46.6,30.15,NNW,335,0.0,0.0,90,0.00,,,0.00,Weather View 32 v70,2013-06-24 12:51:00,
2013-06-24 05:56:00,49.6,46.8,30.15,NNW,335,0.0,0.0,90,0.00,,,0.00,Weather View 32 v70,2013-06-24 12:56:00,
2013-06-24 06:02:00,49.6,46.8,30.15,NNW,335,0.0,0.0,90,0.00,,,0.00,Weather View 32 v70,2013-06-24 13:02:00,
2013-06-24 06:07:00,49.8,47.3,30.15,NNW,335,0.0,0.0,91,0.00,,,0.00,Weather View 32 v70,2013-06-24 13:07:00,
2013-06-24 06:12:00,50.0,47.2,30.15,NNW,335,0.0,0.0,90,0.00,,,0.00,Weather View 32 v70,2013-06-24 13:12:00,
2013-06-24 06:17:00,50.0,47.2,30.15,NNW,335,0.0,0.0,90,0.00,,,0.00,Weather View 32 v70,2013-06-24 13:17:00,
2013-06-24 06:22:00,50.2,47.4,30.15,North,353,2.0,0.0,90,0.00,,,0.00,Weather View 32 v70,2013-06-24 13:22:00,
2013-06-24 06:27:00,50.4,47.8,30.15,North,353,0.0,3.0,91,0.00,,,0.00,Weather View 32 v70,2013-06-24 13:27:00,
2013-06-24 06:32:00,50.4,47.2,30.15,SW,222,2.0,4.0,89,0.00,,,0.00,Weather View 32 v70,2013-06-24 13:32:00,
2013-06-24 06:37:00,50.5,46.8,30.15,SW,222,0.0,4.0,87,0.00,,,0.00,Weather View 32 v70,2013-06-24 13:37:00,
2013-06-24 06:42:00,50.5,46.5,30.15,SW,222,0.0,4.0,86,0.00,,,0.00,Weather View 32 v70,2013-06-24 13:42:00,
2013-06-24 06:47:00,50.7,46.7,30.15,SW,222,3.0,4.0,86,0.00,,,0.00,Weather View 32 v70,2013-06-24 13:47:00,
2013-06-24 06:52:00,50.7,46.7,30.18,SW,222,0.0,4.0,86,0.00,,,0.00,Weather View 32 v70,2013-06-24 13:52:00,
2013-06-24 06:57:00,50.9,46.9,30.18,SW,222,0.0,4.0,86,0.00,,,0.00,Weather View 32 v70,2013-06-24 13:57:00,
2013-06-24 07:02:00,50.9,46.9,30.18,SW,222,0.0,4.0,86,0.00,,,0.00,Weather View 32 v70,2013-06-24 14:02:00,
2013-06-24 07:07:00,50.9,46.9,30.18,SW,222,0.0,4.0,86,0.00,,,0.00,Weather View 32 v70,2013-06-24 14:07:00,
2013-06-24 07:12:00,50.9,46.9,30.18,SW,222,0.0,4.0,86,0.00,,,0.00,Weather View 32 v70,2013-06-24 14:12:00,
2013-06-24 07:17:00,50.9,46.9,30.18,SW,222,0.0,4.0,86,0.00,,,0.00,Weather View 32 v70,2013-06-24 14:17:00,
2013-06-24 07:22:00,51.1,47.3,30.18,SW,222,0.0,4.0,87,0.00,,,0.00,Weather View 32 v70,2013-06-24 14:22:00,
2013-06-24 07:27:00,50.9,46.9,30.18,SW,222,4.0,5.0,86,0.00,,,0.00,Weather View 32 v70,2013-06-24 14:27:00,
2013-06-24 07:32:00,50.5,45.9,30.18,SW,222,0.0,6.0,84,0.00,,,0.00,Weather View 32 v70,2013-06-24 14:32:00,
2013-06-24 07:37:00,50.5,45.9,30.18,SW,222,0.0,6.0,84,0.04,,,0.04,Weather View 32 v70,2013-06-24 14:37:00,
2013-06-24 07:42:00,50.5,45.9,30.18,SW,222,2.0,6.0,84,0.04,,,0.04,Weather View 32 v70,2013-06-24 14:42:00,
2013-06-24 07:47:00,50.5,46.2,30.18,SW,222,0.0,6.0,85,0.04,,,0.04,Weather View 32 v70,2013-06-24 14:47:00,
2013-06-24 07:52:00,50.7,46.4,30.18,SW,222,0.0,6.0,85,0.04,,,0.04,Weather View 32 v70,2013-06-24 14:52:00,
2013-06-24 07:57:00,50.5,46.2,30.18,SW,222,0.0,6.0,85,0.04,,,0.04,Weather View 32 v70,2013-06-24 14:57:00,
2013-06-24 08:02:00,50.4,46.0,30.18,SW,222,3.0,6.0,85,0.04,,,0.04,Weather View 32 v70,2013-06-24 15:02:00,
2013-06-24 08:07:00,50.2,45.8,30.18,SW,222,2.0,6.0,85,0.04,,,0.04,Weather View 32 v70,2013-06-24 15:07:00,
2013-06-24 08:12:00,50.0,45.7,30.18,SW,222,4.0,6.0,85,0.04,,,0.04,Weather View 32 v70,2013-06-24 15:12:00,
2013-06-24 08:17:00,50.0,45.7,30.18,SW,222,6.0,6.0,85,0.04,,,0.04,Weather View 32 v70,2013-06-24 15:17:00,
2013-06-24 08:22:00,49.8,45.8,30.18,SW,222,0.0,6.0,86,0.04,,,0.04,Weather View 32 v70,2013-06-24 15:22:00,
2013-06-24 08:27:00,49.6,45.9,30.18,SW,222,3.0,6.0,87,0.04,,,0.04,Weather View 32 v70,2013-06-24 15:27:00,
2013-06-24 08:32:00,49.5,45.4,30.18,SW,222,4.0,6.0,86,0.04,,,0.04,Weather View 32 v70,2013-06-24 15:32:00,
2013-06-24 08:37:00,49.1,45.1,30.18,SW,222,4.0,6.0,86,0.00,,,0.04,Weather View 32 v70,2013-06-24 15:37:00,
2013-06-24 08:43:00,48.9,44.9,30.18,SW,222,4.0,6.0,86,0.00,,,0.04,Weather View 32 v70,2013-06-24 15:43:00,
2013-06-24 08:48:00,48.7,44.4,30.18,SW,222,5.0,6.0,85,0.00,,,0.04,Weather View 32 v70,2013-06-24 15:48:00,
2013-06-24 08:53:00,48.7,44.4,30.21,SW,222,3.0,6.0,85,0.00,,,0.04,Weather View 32 v70,2013-06-24 15:53:00,
2013-06-24 08:58:00,48.7,44.7,30.21,SW,222,0.0,6.0,86,0.04,,,0.08,Weather View 32 v70,2013-06-24 15:58:00,
2013-06-24 09:03:00,48.6,44.6,30.21,SW,222,3.0,6.0,86,0.04,,,0.08,Weather View 32 v70,2013-06-24 16:03:00,
2013-06-24 09:08:00,48.6,44.6,30.18,SW,222,0.0,6.0,86,0.04,,,0.08,Weather View 32 v70,2013-06-24 16:08:00,
2013-06-24 09:13:00,48.7,45.3,30.18,SW,222,2.0,6.0,88,0.04,,,0.08,Weather View 32 v70,2013-06-24 16:13:00,
2013-06-24 09:18:00,48.7,45.3,30.18,SW,222,0.0,6.0,88,0.04,,,0.08,Weather View 32 v70,2013-06-24 16:18:00,
2013-06-24 09:23:00,48.7,45.3,30.21,SW,222,3.0,6.0,88,0.04,,,0.08,Weather View 32 v70,2013-06-24 16:23:00,
2013-06-24 09:28:00,48.7,45.3,30.21,SW,222,4.0,6.0,88,0.04,,,0.08,Weather View 32 v70,2013-06-24 16:28:00,
2013-06-24 09:33:00,48.2,44.5,30.21,SW,222,3.0,6.0,87,0.04,,,0.08,Weather View 32 v70,2013-06-24 16:33:00,
2013-06-24 09:38:00,47.7,43.7,30.21,SW,222,3.0,6.0,86,0.08,,,0.12,Weather View 32 v70,2013-06-24 16:38:00,
2013-06-24 09:43:00,47.8,44.2,30.21,SW,222,0.0,6.0,87,0.08,,,0.12,Weather View 32 v70,2013-06-24 16:43:00,
2013-06-24 09:48:00,47.7,44.0,30.21,SW,222,0.0,6.0,87,0.08,,,0.12,Weather View 32 v70,2013-06-24 16:48:00,
2013-06-24 09:53:00,47.7,44.0,30.21,SW,222,3.0,6.0,87,0.08,,,0.12,Weather View 32 v70,2013-06-24 16:53:00,
2013-06-24 09:58:00,47.7,44.0,30.21,SW,222,4.0,6.0,87,0.04,,,0.12,Weather View 32 v70,2013-06-24 16:58:00,
2013-06-24 10:03:00,47.3,43.6,30.21,SW,222,0.0,6.0,87,0.04,,,0.12,Weather View 32 v70,2013-06-24 17:03:00,
2013-06-24 10:09:00,47.5,43.8,30.21,SW,222,0.0,6.0,87,0.04,,,0.12,Weather View 32 v70,2013-06-24 17:09:00,
2013-06-24 10:14:00,47.5,43.8,30.21,SW,222,4.0,5.0,87,-0.08,,,0.12,Weather View 32 v70,2013-06-24 17:14:00,
2013-06-24 10:19:00,47.5,43.8,30.21,SW,222,0.0,5.0,87,0.04,,,0.12,Weather View 32 v70,2013-06-24 17:19:00,
2013-06-24 10:24:00,47.8,44.5,30.21,SW,222,0.0,5.0,88,0.04,,,0.12,Weather View 32 v70,2013-06-24 17:24:00,
2013-06-24 10:29:00,48.4,45.0,30.21,SW,222,0.0,5.0,88,0.04,,,0.12,Weather View 32 v70,2013-06-24 17:29:00,
2013-06-24 10:34:00,48.4,45.0,30.21,SW,222,2.0,5.0,88,0.08,,,0.16,Weather View 32 v70,2013-06-24 17:34:00,
2013-06-24 10:39:00,48.4,44.7,30.18,SW,222,0.0,5.0,87,0.04,,,0.16,Weather View 32 v70,2013-06-24 17:39:00,
2013-06-24 10:44:00,48.6,44.9,30.18,SW,222,0.0,5.0,87,0.04,,,0.16,Weather View 32 v70,2013-06-24 17:44:00,
2013-06-24 10:49:00,48.6,44.9,30.18,SW,222,4.0,5.0,87,0.04,,,0.16,Weather View 32 v70,2013-06-24 17:49:00,
2013-06-24 10:54:00,48.7,44.7,30.21,SW,222,0.0,5.0,86,0.04,,,0.16,Weather View 32 v70,2013-06-24 17:54:00,
2013-06-24 10:59:00,48.7,45.0,30.21,SW,222,0.0,5.0,87,0.04,,,0.16,Weather View 32 v70,2013-06-24 17:59:00,
2013-06-24 11:04:00,49.1,45.4,30.21,SW,222,3.0,5.0,87,0.04,,,0.16,Weather View 32 v70,2013-06-24 18:04:00,
2013-06-24 11:09:00,49.5,46.0,30.21,SW,222,0.0,5.0,88,0.04,,,0.16,Weather View 32 v70,2013-06-24 18:09:00,
2013-06-24 11:14:00,49.5,45.7,30.21,SW,222,2.0,5.0,87,0.04,,,0.16,Weather View 32 v70,2013-06-24 18:14:00,
2013-06-24 11:19:00,49.5,45.4,30.21,SW,222,0.0,5.0,86,0.04,,,0.16,Weather View 32 v70,2013-06-24 18:19:00,
2013-06-24 11:24:00,50.0,46.3,30.21,SW,222,0.0,5.0,87,0.04,,,0.16,Weather View 32 v70,2013-06-24 18:24:00,
2013-06-24 11:29:00,50.4,46.9,30.21,SW,222,4.0,5.0,88,0.00,,,0.16,Weather View 32 v70,2013-06-24 18:29:00,
2013-06-24 11:34:00,50.2,46.1,30.21,SW,222,0.0,5.0,86,0.00,,,0.16,Weather View 32 v70,2013-06-24 18:34:00,
2013-06-24 11:39:00,50.2,45.8,30.21,SW,222,0.0,5.0,85,0.00,,,0.16,Weather View 32 v70,2013-06-24 18:39:00,
2013-06-24 11:44:00,50.2,46.1,30.21,SW,222,5.0,6.0,86,0.00,,,0.16,Weather View 32 v70,2013-06-24 18:44:00,
2013-06-24 11:49:00,50.2,46.1,30.21,SW,222,4.0,6.0,86,0.00,,,0.16,Weather View 32 v70,2013-06-24 18:49:00,
2013-06-24 11:54:00,50.4,46.6,30.21,SW,222,4.0,6.0,87,0.00,,,0.16,Weather View 32 v70,2013-06-24 18:54:00,
2013-06-24 11:59:00,50.4,46.3,30.21,SW,222,4.0,6.0,86,0.00,,,0.16,Weather View 32 v70,2013-06-24 18:59:00,
2013-06-24 12:04:00,51.3,46.9,30.21,SW,222,4.0,6.0,85,0.00,,,0.16,Weather View 32 v70,2013-06-24 19:04:00,
2013-06-24 12:09:00,51.1,45.4,30.21,SW,222,0.0,6.0,81,0.00,,,0.16,Weather View 32 v70,2013-06-24 19:09:00,
2013-06-24 12:14:00,51.4,46.1,30.21,SW,222,3.0,6.0,82,0.00,,,0.16,Weather View 32 v70,2013-06-24 19:14:00,
2013-06-24 12:19:00,52.0,46.3,30.21,SW,222,4.0,6.0,81,0.00,,,0.16,Weather View 32 v70,2013-06-24 19:19:00,
2013-06-24 12:24:00,51.8,45.8,30.21,SW,222,0.0,6.0,80,0.00,,,0.16,Weather View 32 v70,2013-06-24 19:24:00,
2013-06-24 12:29:00,51.8,45.5,30.21,SW,222,6.0,6.0,79,0.00,,,0.16,Weather View 32 v70,2013-06-24 19:29:00,
2013-06-24 12:34:00,52.3,45.0,30.21,SW,222,0.0,8.0,76,0.00,,,0.16,Weather View 32 v70,2013-06-24 19:34:00,
2013-06-24 12:39:00,53.1,45.3,30.21,SW,222,4.0,8.0,75,0.00,,,0.16,Weather View 32 v70,2013-06-24 19:39:00,
2013-06-24 12:44:00,54.0,45.5,30.21,SW,222,3.0,8.0,73,0.00,,,0.16,Weather View 32 v70,2013-06-24 19:44:00,
2013-06-24 12:49:00,54.5,43.4,30.21,SW,222,0.0,8.0,66,0.00,,,0.16,Weather View 32 v70,2013-06-24 19:49:00,
2013-06-24 12:54:00,54.5,44.9,30.18,SW,222,4.0,8.0,70,0.00,,,0.16,Weather View 32 v70,2013-06-24 19:54:00,
2013-06-24 12:59:00,54.7,46.2,30.18,SW,222,6.0,8.0,73,0.00,,,0.16,Weather View 32 v70,2013-06-24 19:59:00,
2013-06-24 13:04:00,54.5,44.9,30.21,SW,222,3.0,8.0,70,0.00,,,0.16,Weather View 32 v70,2013-06-24 20:04:00,
2013-06-24 13:09:00,54.1,44.2,30.21,SW,222,5.0,8.0,69,0.00,,,0.16,Weather View 32 v70,2013-06-24 20:09:00,
2013-06-24 13:14:00,54.0,44.0,30.21,SW,222,3.0,8.0,69,0.00,,,0.16,Weather View 32 v70,2013-06-24 20:14:00,
2013-06-24 13:19:00,53.8,43.4,30.21,SW,222,4.0,8.0,68,0.00,,,0.16,Weather View 32 v70,2013-06-24 20:19:00,
2013-06-24 13:24:00,53.8,43.8,30.21,SW,222,5.0,8.0,69,0.00,,,0.16,Weather View 32 v70,2013-06-24 20:24:00,
2013-06-24 13:29:00,53.6,44.8,30.21,SW,222,6.0,8.0,72,0.00,,,0.16,Weather View 32 v70,2013-06-24 20:29:00,
2013-06-24 13:34:00,53.1,43.5,30.21,SW,222,4.0,8.0,70,0.00,,,0.16,Weather View 32 v70,2013-06-24 20:34:00,
2013-06-24 13:39:00,53.1,45.0,30.21,SW,222,4.0,8.0,74,0.00,,,0.16,Weather View 32 v70,2013-06-24 20:39:00,
2013-06-24 13:44:00,53.1,45.3,30.21,SW,222,6.0,8.0,75,0.00,,,0.16,Weather View 32 v70,2013-06-24 20:44:00,
2013-06-24 13:49:00,52.5,44.5,30.21,SW,222,5.0,8.0,74,0.00,,,0.16,Weather View 32 v70,2013-06-24 20:49:00,
2013-06-24 13:54:00,52.3,45.0,30.21,SW,222,4.0,8.0,76,0.00,,,0.16,Weather View 32 v70,2013-06-24 20:54:00,
2013-06-24 13:59:00,52.5,46.8,30.21,SW,222,2.0,8.0,81,0.00,,,0.16,Weather View 32 v70,2013-06-24 20:59:00,
2013-06-24 14:04:00,52.7,47.0,30.18,SW,222,3.0,8.0,81,0.00,,,0.16,Weather View 32 v70,2013-06-24 21:04:00,
2013-06-24 14:09:00,52.9,47.2,30.18,SW,222,3.0,8.0,81,0.00,,,0.16,Weather View 32 v70,2013-06-24 21:09:00,
2013-06-24 14:14:00,53.2,47.5,30.18,SW,222,4.0,8.0,81,0.00,,,0.16,Weather View 32 v70,2013-06-24 21:14:00,
2013-06-24 14:19:00,53.8,48.7,30.18,SW,222,3.0,8.0,83,0.00,,,0.16,Weather View 32 v70,2013-06-24 21:19:00,
2013-06-24 14:24:00,53.8,47.1,30.21,SW,222,4.0,8.0,78,0.04,,,0.20,Weather View 32 v70,2013-06-24 21:24:00,
2013-06-24 14:29:00,54.1,46.7,30.21,SW,222,0.0,8.0,76,0.04,,,0.20,Weather View 32 v70,2013-06-24 21:29:00,
2013-06-24 14:35:00,54.7,46.2,30.21,SW,222,0.0,7.0,73,0.04,,,0.20,Weather View 32 v70,2013-06-24 21:35:00,
2013-06-24 14:40:00,55.2,46.7,30.21,SW,222,0.0,7.0,73,0.04,,,0.20,Weather View 32 v70,2013-06-24 21:40:00,
2013-06-24 14:45:00,55.6,45.5,30.21,SW,222,0.0,7.0,69,0.04,,,0.20,Weather View 32 v70,2013-06-24 21:45:00,
2013-06-24 14:50:00,55.9,45.5,30.21,SW,222,0.0,6.0,68,0.04,,,0.20,Weather View 32 v70,2013-06-24 21:50:00,
2013-06-24 14:55:00,55.8,42.9,30.21,SW,222,0.0,6.0,62,0.04,,,0.20,Weather View 32 v70,2013-06-24 21:55:00,
2013-06-24 15:00:00,55.8,42.9,30.21,SW,222,0.0,6.0,62,0.04,,,0.20,Weather View 32 v70,2013-06-24 22:00:00,
2013-06-24 15:05:00,55.8,43.7,30.21,SW,222,0.0,6.0,64,0.04,,,0.20,Weather View 32 v70,2013-06-24 22:05:00,
2013-06-24 15:10:00,55.9,44.7,30.21,SW,222,0.0,6.0,66,0.04,,,0.20,Weather View 32 v70,2013-06-24 22:10:00,
2013-06-24 15:15:00,56.1,43.7,30.21,SW,222,0.0,4.0,63,0.04,,,0.20,Weather View 32 v70,2013-06-24 22:15:00,
2013-06-24 15:20:00,56.3,43.4,30.21,SW,222,0.0,4.0,62,0.04,,,0.20,Weather View 32 v70,2013-06-24 22:20:00,
2013-06-24 15:25:00,56.5,40.9,30.21,SW,222,0.0,4.0,56,0.00,,,0.20,Weather View 32 v70,2013-06-24 22:25:00,
2013-06-24 15:30:00,57.0,43.2,30.21,SW,222,0.0,4.0,60,0.00,,,0.20,Weather View 32 v70,2013-06-24 22:30:00,
2013-06-24 15:35:00,57.9,44.5,30.21,SW,222,0.0,4.0,61,0.00,,,0.20,Weather View 32 v70,2013-06-24 22:35:00,
2013-06-24 15:40:00,58.3,43.5,30.21,SW,222,3.0,4.0,58,0.00,,,0.20,Weather View 32 v70,2013-06-24 22:40:00,
2013-06-24 15:45:00,58.3,41.7,30.21,SW,222,0.0,4.0,54,0.00,,,0.20,Weather View 32 v70,2013-06-24 22:45:00,
2013-06-24 15:50:00,58.5,42.3,30.21,SW,222,0.0,4.0,55,0.00,,,0.20,Weather View 32 v70,2013-06-24 22:50:00,
2013-06-24 15:55:00,58.8,41.2,30.21,SW,222,0.0,4.0,52,0.00,,,0.20,Weather View 32 v70,2013-06-24 22:55:00,
2013-06-24 16:00:00,59.0,39.8,30.21,SW,222,0.0,4.0,49,0.00,,,0.20,Weather View 32 v70,2013-06-24 23:00:00,
2013-06-24 16:05:00,59.7,43.5,30.18,SW,222,0.0,4.0,55,0.00,,,0.20,Weather View 32 v70,2013-06-24 23:05:00,
2013-06-24 16:10:00,59.7,40.0,30.18,SW,222,3.0,4.0,48,0.00,,,0.20,Weather View 32 v70,2013-06-24 23:10:00,
2013-06-24 16:15:00,59.9,40.6,30.18,SW,222,5.0,5.0,49,0.00,,,0.20,Weather View 32 v70,2013-06-24 23:15:00,
2013-06-24 16:20:00,60.6,42.9,30.18,WSW,244,3.0,5.0,52,0.00,,,0.20,Weather View 32 v70,2013-06-24 23:20:00,
2013-06-24 16:25:00,61.0,41.1,30.18,WNW,293,4.0,5.0,48,0.00,,,0.20,Weather View 32 v70,2013-06-24 23:25:00,
2013-06-24 16:30:00,60.8,39.3,30.18,SW,227,0.0,5.0,45,0.00,,,0.20,Weather View 32 v70,2013-06-24 23:30:00,
2013-06-24 16:35:00,60.8,40.4,30.18,West,271,0.0,5.0,47,0.00,,,0.20,Weather View 32 v70,2013-06-24 23:35:00,
2013-06-24 16:40:00,60.4,39.5,30.18,WNW,293,5.0,5.0,46,0.00,,,0.20,Weather View 32 v70,2013-06-24 23:40:00,
2013-06-24 16:45:00,60.1,40.3,30.18,WSW,253,8.0,8.0,48,0.00,,,0.20,Weather View 32 v70,2013-06-24 23:45:00,
2013-06-24 16:51:00,59.7,40.0,30.21,SW,232,4.0,8.0,48,0.00,,,0.20,Weather View 32 v70,2013-06-24 23:51:00,
2013-06-24 16:56:00,59.5,39.8,30.21,WSW,256,4.0,8.0,48,0.00,,,0.20,Weather View 32 v70,2013-06-24 23:56:00,
2013-06-24 17:01:00,59.5,40.8,30.21,SW,222,3.0,8.0,50,0.00,,,0.20,Weather View 32 v70,2013-06-25 00:01:00,
2013-06-24 17:06:00,59.7,39.4,30.18,SW,222,3.0,8.0,47,0.00,,,0.20,Weather View 32 v70,2013-06-25 00:06:00,
2013-06-24 17:11:00,59.7,39.4,30.18,SW,222,3.0,8.0,47,0.00,,,0.20,Weather View 32 v70,2013-06-25 00:11:00,
2013-06-24 17:16:00,60.1,40.3,30.18,SW,230,3.0,8.0,48,0.00,,,0.20,Weather View 32 v70,2013-06-25 00:16:00,
2013-06-24 17:21:00,60.3,39.3,30.18,SW,230,0.0,8.0,46,0.00,,,0.20,Weather View 32 v70,2013-06-25 00:21:00,
2013-06-24 17:26:00,61.0,40.0,30.18,SW,222,3.0,8.0,46,0.00,,,0.20,Weather View 32 v70,2013-06-25 00:26:00,
2013-06-24 17:31:00,61.7,40.7,30.18,WSW,245,3.0,8.0,46,0.00,,,0.20,Weather View 32 v70,2013-06-25 00:31:00,
2013-06-24 17:36:00,61.2,40.2,30.18,SW,222,3.0,8.0,46,0.00,,,0.20,Weather View 32 v70,2013-06-25 00:36:00,
2013-06-24 17:41:00,60.4,40.1,30.18,SW,222,3.0,8.0,47,0.00,,,0.20,Weather View 32 v70,2013-06-25 00:41:00,
2013-06-24 17:46:00,60.3,39.9,30.18,SW,222,0.0,8.0,47,0.00,,,0.20,Weather View 32 v70,2013-06-25 00:46:00,
2013-06-24 17:51:00,60.1,39.7,30.18,SW,222,0.0,6.0,47,0.00,,,0.20,Weather View 32 v70,2013-06-25 00:51:00,
2013-06-24 17:56:00,59.9,39.6,30.18,SW,222,4.0,6.0,47,0.00,,,0.20,Weather View 32 v70,2013-06-25 00:56:00,
2013-06-24 18:01:00,60.1,40.8,30.18,SW,222,0.0,6.0,49,0.00,,,0.20,Weather View 32 v70,2013-06-25 01:01:00,
2013-06-24 18:06:00,60.1,40.3,30.18,SW,222,0.0,6.0,48,0.00,,,0.20,Weather View 32 v70,2013-06-25 01:06:00,
2013-06-24 18:11:00,60.1,40.3,30.18,SW,222,0.0,6.0,48,0.00,,,0.20,Weather View 32 v70,2013-06-25 01:11:00,
2013-06-24 18:15:00,60.1,40.3,30.18,SW,222,0.0,6.0,48,0.00,,,0.20,Weather View 32 v70,2013-06-25 01:15:00,
2013-06-24 18:16:00,60.3,40.4,30.18,SW,222,0.0,6.0,48,0.00,,,0.20,Weather View 32 v70,2013-06-25 01:16:00,
2013-06-24 18:21:00,60.4,40.6,30.18,SW,222,2.0,6.0,48,0.00,,,0.20,Weather View 32 v70,2013-06-25 01:21:00,
2013-06-24 18:26:00,60.3,39.9,30.18,SW,222,0.0,6.0,47,0.00,,,0.20,Weather View 32 v70,2013-06-25 01:26:00,
2013-06-24 18:31:00,60.1,40.3,30.18,SW,222,0.0,6.0,48,0.00,,,0.20,Weather View 32 v70,2013-06-25 01:31:00,
2013-06-24 18:36:00,60.1,40.3,30.21,SW,222,3.0,6.0,48,0.00,,,0.20,Weather View 32 v70,2013-06-25 01:36:00,
2013-06-24 18:41:00,60.1,39.7,30.21,SW,222,0.0,6.0,47,0.00,,,0.20,Weather View 32 v70,2013-06-25 01:41:00,
2013-06-24 18:46:00,60.4,40.6,30.21,North,0,6.0,6.0,48,0.00,,,0.20,Weather View 32 v70,2013-06-25 01:46:00,
2013-06-24 18:51:00,60.6,39.7,30.21,North,349,3.0,6.0,46,0.00,,,0.20,Weather View 32 v70,2013-06-25 01:51:00,
2013-06-24 18:56:00,60.6,39.7,30.21,WNW,303,3.0,6.0,46,0.00,,,0.20,Weather View 32 v70,2013-06-25 01:56:00,
2013-06-24 19:01:00,60.6,40.8,30.21,North,2,2.0,6.0,48,0.00,,,0.20,Weather View 32 v70,2013-06-25 02:01:00,
2013-06-24 19:07:00,60.4,40.1,30.21,NNE,14,0.0,6.0,47,0.00,,,0.20,Weather View 32 v70,2013-06-25 02:07:00,
2013-06-24 19:12:00,60.4,40.6,30.21,North,0,2.0,6.0,48,0.00,,,0.20,Weather View 32 v70,2013-06-25 02:12:00,
2013-06-24 19:15:00,60.4,40.6,30.21,North,357,0.0,6.0,48,0.00,,,0.20,Weather View 32 v70,2013-06-25 02:15:00,
2013-06-24 19:17:00,60.3,40.4,30.21,North,357,0.0,6.0,48,0.00,,,0.20,Weather View 32 v70,2013-06-25 02:17:00,
2013-06-24 19:22:00,60.3,40.4,30.21,North,357,0.0,6.0,48,0.00,,,0.20,Weather View 32 v70,2013-06-25 02:22:00,
2013-06-24 19:27:00,60.1,40.8,30.21,NNW,335,0.0,6.0,49,0.00,,,0.20,Weather View 32 v70,2013-06-25 02:27:00,
2013-06-24 19:32:00,60.1,40.8,30.21,NW,316,4.0,6.0,49,0.00,,,0.20,Weather View 32 v70,2013-06-25 02:32:00,
2013-06-24 19:37:00,60.1,39.7,30.21,NW,312,6.0,8.0,47,0.00,,,0.20,Weather View 32 v70,2013-06-25 02:37:00,
2013-06-24 19:42:00,59.9,39.6,30.21,WNW,300,6.0,11.0,47,0.00,,,0.20,Weather View 32 v70,2013-06-25 02:42:00,
2013-06-24 19:47:00,59.9,39.0,30.21,WNW,301,8.0,11.0,46,0.00,,,0.20,Weather View 32 v70,2013-06-25 02:47:00,
2013-06-24 19:52:00,59.7,39.4,30.21,WNW,286,4.0,15.0,47,0.00,,,0.20,Weather View 32 v70,2013-06-25 02:52:00,
2013-06-24 19:57:00,59.5,39.8,30.21,NW,307,6.0,15.0,48,0.00,,,0.20,Weather View 32 v70,2013-06-25 02:57:00,
2013-06-24 20:02:00,59.4,39.1,30.21,NW,312,4.0,15.0,47,0.00,,,0.20,Weather View 32 v70,2013-06-25 03:02:00,
2013-06-24 20:07:00,59.2,38.9,30.21,NW,304,6.0,15.0,47,0.00,,,0.20,Weather View 32 v70,2013-06-25 03:07:00,
2013-06-24 20:12:00,58.8,39.1,30.21,NNW,329,8.0,15.0,48,0.00,,,0.20,Weather View 32 v70,2013-06-25 03:12:00,
2013-06-24 20:15:00,58.8,39.7,30.21,NW,306,5.0,15.0,49,0.00,,,0.20,Weather View 32 v70,2013-06-25 03:15:00,
2013-06-24 20:17:00,58.8,39.7,30.21,West,281,4.0,15.0,49,0.00,,,0.20,Weather View 32 v70,2013-06-25 03:17:00,
2013-06-24 20:22:00,58.5,39.8,30.21,WNW,294,3.0,15.0,50,0.00,,,0.20,Weather View 32 v70,2013-06-25 03:22:00,
2013-06-24 20:27:00,58.3,40.2,30.21,West,278,5.0,15.0,51,0.00,,,0.20,Weather View 32 v70,2013-06-25 03:27:00,
2013-06-24 20:32:00,58.1,40.5,30.21,NW,319,5.0,15.0,52,0.00,,,0.20,Weather View 32 v70,2013-06-25 03:32:00,
2013-06-24 20:37:00,57.9,40.9,30.21,WNW,300,8.0,15.0,53,0.00,,,0.20,Weather View 32 v70,2013-06-25 03:37:00,
2013-06-24 20:42:00,57.7,40.7,30.21,WNW,303,5.0,15.0,53,0.00,,,0.20,Weather View 32 v70,2013-06-25 03:42:00,
2013-06-24 20:47:00,57.6,41.0,30.21,West,280,10.0,15.0,54,0.00,,,0.20,Weather View 32 v70,2013-06-25 03:47:00,
2013-06-24 20:52:00,57.6,41.0,30.21,NW,322,6.0,12.0,54,0.00,,,0.20,Weather View 32 v70,2013-06-25 03:52:00,
2013-06-24 20:57:00,57.6,41.0,30.21,WNW,292,5.0,12.0,54,0.00,,,0.20,Weather View 32 v70,2013-06-25 03:57:00,
2013-06-24 21:01:00,57.6,41.0,30.21,West,270,8.0,12.0,54,0.00,,,0.20,Weather View 32 v70,2013-06-25 04:01:00,
2013-06-24 21:07:00,57.4,41.3,30.21,WNW,284,8.0,12.0,55,0.00,,,0.20,Weather View 32 v70,2013-06-25 04:07:00,
2013-06-24 21:12:00,57.2,41.6,30.21,West,268,9.0,11.0,56,0.00,,,0.20,Weather View 32 v70,2013-06-25 04:12:00,
2013-06-24 21:15:00,57.0,41.9,30.21,NW,313,8.0,11.0,57,0.00,,,0.20,Weather View 32 v70,2013-06-25 04:15:00,
2013-06-24 21:20:00,57.0,41.9,30.24,NW,308,9.0,11.0,57,0.00,,,0.20,Weather View 32 v70,2013-06-25 04:20:00,
2013-06-24 21:25:00,56.8,42.2,30.24,WNW,295,7.0,11.0,58,0.00,,,0.20,Weather View 32 v70,2013-06-25 04:25:00,
2013-06-24 21:30:00,56.8,42.2,30.24,WNW,285,5.0,11.0,58,0.00,,,0.20,Weather View 32 v70,2013-06-25 04:30:00,
2013-06-24 21:35:00,56.8,42.2,30.24,West,280,3.0,11.0,58,0.00,,,0.20,Weather View 32 v70,2013-06-25 04:35:00,
2013-06-24 21:40:00,56.8,42.2,30.24,WNW,295,5.0,11.0,58,0.00,,,0.20,Weather View 32 v70,2013-06-25 04:40:00,
2013-06-24 21:45:00,56.7,42.0,30.24,NW,309,8.0,11.0,58,0.00,,,0.20,Weather View 32 v70,2013-06-25 04:45:00,
2013-06-24 21:50:00,56.7,42.5,30.24,WNW,292,5.0,11.0,59,0.00,,,0.20,Weather View 32 v70,2013-06-25 04:50:00,
2013-06-24 21:55:00,56.5,42.3,30.24,WNW,301,4.0,10.0,59,0.00,,,0.20,Weather View 32 v70,2013-06-25 04:55:00,
2013-06-24 22:00:00,56.5,42.7,30.24,NW,319,5.0,10.0,60,0.00,,,0.20,Weather View 32 v70,2013-06-25 05:00:00,
2013-06-24 22:05:00,56.3,42.6,30.24,NNW,328,5.0,11.0,60,0.00,,,0.20,Weather View 32 v70,2013-06-25 05:05:00,
2013-06-24 22:10:00,56.3,43.0,30.24,West,279,4.0,11.0,61,0.00,,,0.20,Weather View 32 v70,2013-06-25 05:10:00,
2013-06-24 22:15:00,56.1,43.2,30.24,WNW,286,4.0,11.0,62,0.00,,,0.20,Weather View 32 v70,2013-06-25 05:15:00,
2013-06-24 22:20:00,55.9,43.1,30.24,West,273,6.0,11.0,62,0.00,,,0.20,Weather View 32 v70,2013-06-25 05:20:00,
2013-06-24 22:25:00,55.9,43.1,30.24,West,268,4.0,11.0,62,0.00,,,0.20,Weather View 32 v70,2013-06-25 05:25:00,
2013-06-24 22:30:00,55.9,43.1,30.24,WSW,250,3.0,11.0,62,0.00,,,0.20,Weather View 32 v70,2013-06-25 05:30:00,
2013-06-24 22:35:00,55.8,43.3,30.24,WNW,295,3.0,11.0,63,0.00,,,0.20,Weather View 32 v70,2013-06-25 05:35:00,
2013-06-24 22:40:00,55.6,43.2,30.24,WNW,295,3.0,11.0,63,0.00,,,0.20,Weather View 32 v70,2013-06-25 05:40:00,
2013-06-24 22:45:00,55.4,43.4,30.24,WNW,295,3.0,11.0,64,0.00,,,0.20,Weather View 32 v70,2013-06-25 05:45:00,
2013-06-24 22:50:00,55.2,43.2,30.24,WNW,295,3.0,11.0,64,0.00,,,0.20,Weather View 32 v70,2013-06-25 05:50:00,
2013-06-24 22:55:00,54.9,42.9,30.24,WNW,295,0.0,11.0,64,0.00,,,0.20,Weather View 32 v70,2013-06-25 05:55:00,
2013-06-24 23:00:00,54.7,42.7,30.24,WNW,295,0.0,11.0,64,0.00,,,0.20,Weather View 32 v70,2013-06-25 06:00:00,
2013-06-24 23:05:00,54.5,43.0,30.24,WNW,295,0.0,11.0,65,0.00,,,0.20,Weather View 32 v70,2013-06-25 06:05:00,
2013-06-24 23:10:00,54.1,43.0,30.21,WNW,295,0.0,11.0,66,0.00,,,0.20,Weather View 32 v70,2013-06-25 06:10:00,
2013-06-24 23:15:00,54.0,42.8,30.21,WNW,295,0.0,8.0,66,0.00,,,0.20,Weather View 32 v70,2013-06-25 06:15:00,
2013-06-24 23:20:00,53.8,42.7,30.24,WNW,295,0.0,8.0,66,0.00,,,0.20,Weather View 32 v70,2013-06-25 06:20:00,
2013-06-24 23:25:00,53.6,42.9,30.24,WNW,295,0.0,6.0,67,0.00,,,0.20,Weather View 32 v70,2013-06-25 06:25:00,
2013-06-24 23:30:00,53.4,43.1,30.24,WNW,295,2.0,6.0,68,0.00,,,0.20,Weather View 32 v70,2013-06-25 06:30:00,
2013-06-24 23:35:00,53.4,43.1,30.24,WNW,295,3.0,4.0,68,0.00,,,0.20,Weather View 32 v70,2013-06-25 06:35:00,
2013-06-24 23:38:00,53.4,43.5,30.24,West,261,3.0,4.0,69,0.00,,,0.20,Weather View 32 v70,2013-06-25 06:38:00,
2013-06-24 23:43:00,53.4,43.5,30.24,WNW,290,3.0,5.0,69,0.00,,,0.20,Weather View 32 v70,2013-06-25 06:43:00,
2013-06-24 23:48:00,53.4,43.5,30.24,West,276,3.0,5.0,69,0.00,,,0.20,Weather View 32 v70,2013-06-25 06:48:00,
2013-06-24 23:53:00,53.4,43.5,30.24,West,276,3.0,5.0,69,0.00,,,0.20,Weather View 32 v70,2013-06-25 06:53:00,
2013-06-24 23:58:00,53.4,43.5,30.24,West,279,3.0,5.0,69,0.00,,,0.20,Weather View 32 v70,2013-06-25 06:58:00,